createdAt,value
2022-10-28T00:02:09.895Z,4.97
2022-10-28T00:06:28.111Z,5.82
2022-10-28T00:10:39.713Z,5.70
2022-10-28T00:14:51.233Z,5.93
2022-10-28T00:19:04.649Z,5.80
2022-10-28T00:23:16.194Z,5.28
2022-10-28T00:27:29.798Z,6.05
2022-10-28T00:31:41.962Z,6.03
2022-10-28T00:35:53.525Z,6.03
2022-10-28T00:40:05.504Z,6.13
2022-10-28T00:44:54.346Z,5.75
2022-10-28T00:49:21.025Z,6.43
2022-10-28T00:53:33.414Z,6.57
2022-10-28T00:57:46.114Z,6.65
2022-10-28T01:01:57.849Z,7.20
2022-10-28T01:06:10.543Z,5.88
2022-10-28T01:10:38.292Z,6.72
2022-10-28T01:15:08.430Z,6.57
2022-10-28T01:19:33.675Z,6.70
2022-10-28T01:24:39.557Z,5.97
2022-10-28T01:29:18.840Z,6.85
2022-10-28T01:33:42.976Z,6.63
2022-10-28T01:38:14.061Z,6.90
2022-10-28T01:42:34.313Z,8.70
2022-10-28T01:46:55.998Z,7.93
2022-10-28T01:51:27.002Z,7.65
2022-10-28T01:55:42.177Z,6.75
2022-10-28T01:59:54.220Z,6.63
2022-10-28T02:04:05.748Z,6.50
2022-10-28T02:08:25.916Z,6.55
2022-10-28T02:12:38.635Z,6.70
2022-10-28T02:16:56.293Z,6.53
2022-10-28T02:21:55.335Z,6.88
2022-10-28T02:26:22.022Z,6.18
2022-10-28T02:30:44.446Z,5.80
2022-10-28T02:35:00.144Z,6.15
2022-10-28T02:39:11.708Z,5.95
2022-10-28T02:43:25.168Z,5.82
2022-10-28T02:47:42.644Z,6.82
2022-10-28T02:52:00.057Z,5.78
2022-10-28T02:56:14.708Z,5.57
2022-10-28T03:00:26.284Z,6.03
2022-10-28T03:04:37.743Z,6.00
2022-10-28T03:08:49.228Z,6.07
2022-10-28T03:13:00.728Z,5.70
2022-10-28T03:17:12.221Z,5.63
2022-10-28T03:21:23.724Z,5.40
2022-10-28T03:25:35.193Z,5.18
2022-10-28T03:29:46.653Z,6.03
2022-10-28T03:33:58.202Z,5.28
2022-10-28T03:38:09.720Z,5.75
2022-10-28T03:42:21.197Z,5.55
2022-10-28T03:46:35.169Z,5.22
2022-10-28T03:50:47.641Z,5.35
2022-10-28T03:55:23.868Z,5.63
2022-10-28T03:59:35.441Z,4.78
2022-10-28T04:03:47.001Z,5.10
2022-10-28T04:07:58.516Z,5.43
2022-10-28T04:12:10.973Z,5.22
2022-10-28T04:16:22.505Z,5.25
2022-10-28T04:20:34.029Z,5.10
2022-10-28T04:24:45.494Z,5.03
2022-10-28T04:28:57.217Z,5.15
2022-10-28T04:33:12.088Z,5.07
2022-10-28T04:37:23.844Z,5.18
2022-10-28T04:41:35.438Z,4.68
2022-10-28T04:45:47.318Z,4.78
2022-10-28T04:49:58.808Z,4.88
2022-10-28T04:54:10.382Z,4.70
2022-10-28T04:58:21.893Z,4.50
2022-10-28T05:02:33.398Z,5.20
2022-10-28T05:06:44.983Z,4.20
2022-10-28T05:10:56.549Z,4.18
2022-10-28T05:15:09.090Z,5.15
2022-10-28T05:19:20.600Z,4.30
2022-10-28T05:23:32.122Z,3.97
2022-10-28T05:27:43.668Z,4.38
2022-10-28T05:31:55.250Z,4.57
2022-10-28T05:36:06.949Z,4.70
2022-10-28T05:40:18.499Z,4.75
2022-10-28T05:44:30.014Z,5.32
2022-10-28T05:48:41.548Z,5.43
2022-10-28T05:52:55.553Z,4.75
2022-10-28T05:57:07.082Z,4.80
2022-10-28T06:01:18.578Z,4.05
2022-10-28T06:05:30.066Z,4.10
2022-10-28T06:09:41.535Z,4.45
2022-10-28T06:13:51.481Z,4.45
2022-10-28T06:18:03.149Z,4.97
2022-10-28T06:22:14.724Z,3.83
2022-10-28T06:26:26.202Z,4.47
2022-10-28T06:30:37.714Z,4.10
2022-10-28T06:34:49.206Z,4.82
2022-10-28T06:39:00.852Z,4.20
2022-10-28T06:43:12.984Z,5.60
2022-10-28T06:47:26.102Z,5.38
2022-10-28T06:51:37.586Z,4.50
2022-10-28T06:55:56.612Z,5.18
2022-10-28T07:00:08.973Z,4.70
2022-10-28T07:04:20.483Z,5.25
2022-10-28T07:08:32.596Z,4.22
2022-10-28T07:12:44.116Z,4.50
2022-10-28T07:16:55.651Z,4.53
2022-10-28T07:21:07.137Z,4.35
2022-10-28T07:25:18.625Z,4.13
2022-10-28T07:29:30.185Z,4.05
2022-10-28T07:33:41.649Z,4.00
2022-10-28T07:37:53.509Z,4.20
2022-10-28T07:42:05.041Z,4.13
2022-10-28T07:46:17.662Z,4.00
2022-10-28T07:50:29.196Z,3.95
2022-10-28T07:54:40.791Z,3.92
2022-10-28T07:58:52.323Z,4.30
2022-10-28T08:03:03.820Z,3.72
2022-10-28T08:07:15.826Z,3.83
2022-10-28T08:11:27.345Z,3.85
2022-10-28T08:15:38.798Z,3.72
2022-10-28T08:19:50.313Z,3.78
2022-10-28T08:24:01.872Z,3.40
2022-10-28T08:28:13.352Z,3.33
2022-10-28T08:32:24.924Z,3.67
2022-10-28T08:36:36.473Z,3.90
2022-10-28T08:41:12.823Z,3.40
2022-10-28T08:45:53.868Z,3.28
2022-10-28T08:50:11.261Z,3.70
2022-10-28T08:54:54.910Z,3.28
2022-10-28T08:59:10.623Z,3.17
2022-10-28T09:03:39.230Z,3.40
2022-10-28T09:07:52.201Z,3.72
2022-10-28T09:12:13.157Z,3.78
2022-10-28T09:16:39.470Z,3.28
2022-10-28T09:20:54.959Z,3.30
2022-10-28T09:25:32.244Z,4.00
2022-10-28T09:30:05.673Z,3.65
2022-10-28T09:34:52.805Z,3.10
2022-10-28T09:39:07.124Z,3.55
2022-10-28T09:43:18.532Z,4.00
2022-10-28T09:47:40.506Z,3.10
2022-10-28T09:52:16.436Z,3.67
2022-10-28T09:56:29.541Z,4.07
2022-10-28T10:00:41.187Z,4.13
2022-10-28T10:04:54.091Z,3.95
2022-10-28T10:09:05.619Z,3.70
2022-10-28T10:13:22.397Z,3.47
2022-10-28T10:17:39.734Z,3.45
2022-10-28T10:21:54.187Z,3.42
2022-10-28T10:26:11.242Z,4.20
2022-10-28T10:30:30.636Z,4.25
2022-10-28T10:34:54.204Z,3.95
2022-10-28T10:39:21.824Z,3.70
2022-10-28T10:43:35.610Z,4.10
2022-10-28T10:47:47.172Z,4.10
2022-10-28T10:52:01.561Z,3.92
2022-10-28T10:56:15.569Z,3.97
2022-10-28T11:00:35.762Z,4.10
2022-10-28T11:04:53.387Z,3.83
2022-10-28T11:09:25.015Z,3.40
2022-10-28T11:13:40.044Z,3.20
2022-10-28T11:18:20.622Z,3.00
2022-10-28T11:23:12.647Z,3.28
2022-10-28T11:28:04.359Z,3.00
2022-10-28T11:32:25.671Z,3.70
2022-10-28T11:36:55.972Z,3.78
2022-10-28T11:41:25.396Z,3.28
2022-10-28T11:46:19.879Z,3.30
2022-10-28T11:50:50.055Z,2.95
2022-10-28T11:55:25.779Z,3.80
2022-10-28T11:59:56.046Z,3.80
2022-10-28T12:04:20.464Z,3.70
2022-10-28T12:08:42.551Z,3.58
2022-10-28T12:12:58.219Z,3.15
2022-10-28T12:17:19.619Z,3.10
2022-10-28T12:21:37.563Z,3.15
2022-10-28T12:25:52.489Z,3.30
2022-10-28T12:30:16.263Z,3.35
2022-10-28T12:34:34.063Z,2.95
2022-10-28T12:38:55.883Z,2.90
2022-10-28T12:43:24.935Z,3.40
2022-10-28T12:47:43.348Z,3.30
2022-10-28T12:52:01.747Z,3.35
2022-10-28T12:56:26.213Z,3.17
2022-10-28T13:00:44.274Z,3.65
2022-10-28T13:04:57.696Z,2.88
2022-10-28T13:09:37.875Z,3.30
2022-10-28T13:14:16.471Z,3.10
2022-10-28T13:18:52.751Z,2.92
2022-10-28T13:23:10.119Z,3.35
2022-10-28T13:27:22.820Z,3.05
2022-10-28T13:31:37.370Z,3.38
2022-10-28T13:35:50.727Z,3.55
2022-10-28T13:40:02.450Z,2.95
2022-10-28T13:44:24.020Z,2.72
2022-10-28T13:48:41.447Z,3.17
2022-10-28T13:53:23.918Z,3.33
2022-10-28T13:57:37.960Z,3.22
2022-10-28T14:02:07.837Z,3.67
2022-10-28T14:06:34.921Z,3.28
2022-10-28T14:11:21.734Z,2.80
2022-10-28T14:15:40.803Z,3.40
2022-10-28T14:19:53.541Z,3.30
2022-10-28T14:24:12.197Z,3.50
2022-10-28T14:28:29.662Z,3.53
2022-10-28T14:32:57.234Z,3.13
2022-10-28T14:37:28.437Z,3.20
2022-10-28T14:42:05.088Z,3.35
2022-10-28T14:46:45.577Z,3.35
2022-10-28T14:51:00.151Z,3.30
2022-10-28T14:55:31.027Z,3.85
2022-10-28T14:59:44.100Z,3.35
2022-10-28T15:04:02.287Z,3.53
2022-10-28T15:08:13.822Z,3.35
2022-10-28T15:12:26.171Z,3.28
2022-10-28T15:16:47.761Z,3.38
2022-10-28T15:21:19.914Z,3.33
2022-10-28T15:25:31.386Z,3.65
2022-10-28T15:29:43.519Z,3.75
2022-10-28T15:33:55.023Z,3.35
2022-10-28T15:38:34.554Z,4.03
2022-10-28T15:42:53.688Z,3.83
2022-10-28T15:47:25.456Z,3.72
2022-10-28T15:51:37.033Z,3.42
2022-10-28T15:56:09.447Z,4.15
2022-10-28T16:00:27.499Z,3.65
2022-10-28T16:04:45.982Z,3.55
2022-10-28T16:09:20.651Z,3.88
2022-10-28T16:13:36.889Z,4.15
2022-10-28T16:17:48.748Z,3.53
2022-10-28T16:22:00.281Z,4.53
2022-10-28T16:26:12.390Z,3.65
2022-10-28T16:30:23.926Z,3.75
2022-10-28T16:34:35.428Z,3.92
2022-10-28T16:38:46.981Z,3.83
2022-10-28T16:42:58.546Z,3.88
2022-10-28T16:47:14.868Z,3.45
2022-10-28T16:51:26.390Z,3.75
2022-10-28T16:55:38.185Z,3.88
2022-10-28T16:59:49.940Z,3.60
2022-10-28T17:04:01.639Z,3.72
2022-10-28T17:08:13.772Z,3.72
2022-10-28T17:12:27.249Z,3.78
2022-10-28T17:16:40.710Z,3.75
2022-10-28T17:21:02.462Z,3.88
2022-10-28T17:25:14.330Z,4.45
2022-10-28T17:29:26.225Z,4.10
2022-10-28T17:33:37.714Z,4.88
2022-10-28T17:37:49.241Z,5.53
2022-10-28T17:42:00.727Z,6.43
2022-10-28T17:46:12.263Z,6.40
2022-10-28T17:50:23.713Z,5.13
2022-10-28T17:54:35.188Z,6.07
2022-10-28T17:58:46.855Z,5.47
2022-10-28T18:02:58.471Z,5.95
2022-10-28T18:07:10.027Z,5.88
2022-10-28T18:11:21.499Z,5.10
2022-10-28T18:15:36.638Z,5.10
2022-10-28T18:19:48.121Z,5.80
2022-10-28T18:24:03.879Z,5.93
2022-10-28T18:28:17.535Z,5.82
2022-10-28T18:32:29.015Z,5.95
2022-10-28T18:36:40.512Z,6.65
2022-10-28T18:40:52.016Z,7.38
2022-10-28T18:45:05.438Z,6.30
2022-10-28T18:49:16.931Z,6.03
2022-10-28T18:53:28.653Z,5.53
2022-10-28T18:57:40.157Z,5.95
2022-10-28T19:01:51.772Z,7.70
2022-10-28T19:06:06.325Z,6.90
2022-10-28T19:10:17.918Z,5.57
2022-10-28T19:14:29.446Z,6.13
2022-10-28T19:18:41.004Z,6.03
2022-10-28T19:22:52.885Z,5.68
2022-10-28T19:27:04.770Z,5.55
2022-10-28T19:31:19.213Z,5.22
2022-10-28T19:35:32.870Z,5.18
2022-10-28T19:39:44.376Z,6.05
2022-10-28T19:44:00.532Z,5.22
2022-10-28T19:48:12.033Z,4.68
2022-10-28T19:52:23.616Z,4.57
2022-10-28T19:56:35.662Z,4.10
2022-10-28T20:00:47.156Z,5.15
2022-10-28T20:04:58.686Z,4.25
2022-10-28T20:09:10.237Z,4.72
2022-10-28T20:13:21.779Z,4.30
2022-10-28T20:17:33.277Z,4.00
2022-10-28T20:21:45.131Z,5.20
2022-10-28T20:25:56.690Z,5.30
2022-10-28T20:30:08.705Z,5.50
2022-10-28T20:34:21.832Z,4.18
2022-10-28T20:38:33.628Z,4.30
2022-10-28T20:42:45.168Z,4.20
2022-10-28T20:46:56.682Z,4.68
2022-10-28T20:51:09.227Z,4.03
2022-10-28T20:55:20.796Z,4.60
2022-10-28T20:59:32.332Z,4.78
2022-10-28T21:03:44.548Z,6.30
2022-10-28T21:07:56.427Z,5.53
2022-10-28T21:12:08.224Z,5.65
2022-10-28T21:16:20.189Z,4.88
2022-10-28T21:20:32.500Z,4.68
2022-10-28T21:24:44.003Z,5.38
2022-10-28T21:28:56.300Z,5.00
2022-10-28T21:33:07.811Z,5.20
2022-10-28T21:37:19.518Z,4.93
2022-10-28T21:41:31.276Z,5.38
2022-10-28T21:45:42.736Z,5.47
2022-10-28T21:49:54.257Z,5.35
2022-10-28T21:54:05.785Z,5.85
2022-10-28T21:58:17.894Z,4.90
2022-10-28T22:02:29.511Z,5.25
2022-10-28T22:06:41.240Z,5.28
2022-10-28T22:11:00.996Z,4.90
2022-10-28T22:15:12.504Z,4.97
2022-10-28T22:19:24.121Z,5.05
2022-10-28T22:23:36.699Z,5.53
2022-10-28T22:27:48.195Z,6.00
2022-10-28T22:31:59.667Z,4.88
2022-10-28T22:36:16.331Z,4.90
2022-10-28T22:40:29.340Z,5.10
2022-10-28T22:44:40.832Z,5.53
2022-10-28T22:48:52.765Z,4.47
2022-10-28T22:53:04.566Z,4.97
2022-10-28T22:57:16.041Z,5.57
2022-10-28T23:01:29.013Z,4.53
2022-10-28T23:05:40.970Z,4.07
2022-10-28T23:09:52.474Z,4.60
2022-10-28T23:14:04.095Z,4.15
2022-10-28T23:18:15.574Z,4.45
2022-10-28T23:22:28.877Z,4.30
2022-10-28T23:26:42.071Z,3.80
2022-10-28T23:30:53.578Z,3.97
2022-10-28T23:35:06.023Z,4.18
2022-10-28T23:39:17.525Z,4.78
2022-10-28T23:43:29.971Z,4.13
2022-10-28T23:47:42.057Z,3.95
2022-10-28T23:51:53.570Z,4.03
2022-10-28T23:56:05.941Z,4.15
